Time;durP1;ratioP1;P1;durP2;ratioP2;P2;SDS_P1;SDS_P2;PMS_P1;PMS_P2;Temp;Humidity;BMP_temperature;BMP_pressure;BME280_temperature;BME280_humidity;BME280_pressure;Samples;Min_cycle;Max_cycle;Signal;HPM_P1;HPM_P2
2022/01/09 00:00:30;;;;;;;3.65;1.90;;;9.30;99.90;;;;;;5013030;28;20033;-77
2022/01/09 00:02:56;;;;;;;0.60;0.57;;;9.40;99.90;;;;;;5013749;28;20037;-80
2022/01/09 00:05:23;;;;;;;2.78;1.90;;;9.30;99.90;;;;;;5014195;28;20400;-77
2022/01/09 00:07:49;;;;;;;0.00;0.00;;;9.10;99.90;;;;;;5014094;28;20030;-77
2022/01/09 00:10:15;;;;;;;0.15;0.15;;;9.00;99.90;;;;;;5012695;28;20018;-77
2022/01/09 00:12:41;;;;;;;0.00;0.00;;;8.90;99.90;;;;;;5011000;28;20034;-77
2022/01/09 00:15:08;;;;;;;0.80;0.80;;;8.80;99.90;;;;;;5011547;28;20036;-80
2022/01/09 00:17:34;;;;;;;0.10;0.10;;;8.80;99.90;;;;;;5013903;28;20481;-79
2022/01/09 00:19:59;;;;;;;1.27;0.75;;;8.70;99.90;;;;;;5013922;28;20079;-78
2022/01/09 00:22:37;;;;;;;0.70;0.55;;;8.70;99.90;;;;;;5013624;28;20485;-78
2022/01/09 00:25:04;;;;;;;0.32;0.32;;;8.70;99.90;;;;;;5013741;28;20065;-79
2022/01/09 00:27:29;;;;;;;2.75;2.00;;;8.70;99.90;;;;;;5013897;28;20037;-80
2022/01/09 00:29:55;;;;;;;5.57;1.50;;;8.70;99.90;;;;;;5013525;28;20038;-80
2022/01/09 00:32:21;;;;;;;0.40;0.40;;;8.80;99.90;;;;;;5014525;28;20497;-80
2022/01/09 00:34:46;;;;;;;2.00;1.17;;;8.80;99.90;;;;;;5017618;28;20069;-79
2022/01/09 00:37:12;;;;;;;0.00;0.00;;;8.90;99.90;;;;;;5018764;28;20049;-79
2022/01/09 00:39:37;;;;;;;5.82;1.92;;;9.10;99.90;;;;;;5018097;28;20392;-78
2022/01/09 00:42:03;;;;;;;0.00;0.00;;;9.20;99.90;;;;;;5015477;28;20538;-78
2022/01/09 00:44:29;;;;;;;0.82;0.75;;;9.20;99.90;;;;;;5017477;28;20026;-79
2022/01/09 00:46:56;;;;;;;1.65;1.27;;;9.20;99.90;;;;;;5019630;28;20030;-79
2022/01/09 00:49:22;;;;;;;1.88;1.55;;;9.20;99.90;;;;;;5019889;28;20041;-79
2022/01/09 00:51:48;;;;;;;6.93;2.45;;;9.40;99.90;;;;;;5021785;28;20397;-79
2022/01/09 00:54:14;;;;;;;4.57;1.90;;;9.40;99.90;;;;;;5020700;28;20024;-80
2022/01/09 00:56:39;;;;;;;0.00;0.00;;;9.50;99.90;;;;;;5014050;28;20037;-80
2022/01/09 00:59:05;;;;;;;38.33;1.17;;;9.50;99.90;;;;;;5013512;28;20026;-78
2022/01/09 01:01:30;;;;;;;0.63;0.63;;;9.50;99.90;;;;;;5013682;28;20069;-79
2022/01/09 01:03:56;;;;;;;0.82;0.80;;;9.50;99.90;;;;;;5013338;28;20054;-79
2022/01/09 01:06:22;;;;;;;1.85;1.55;;;9.50;99.90;;;;;;5013263;28;20030;-79
2022/01/09 01:08:47;;;;;;;0.05;0.05;;;9.40;99.90;;;;;;5013520;28;20034;-80
2022/01/09 01:11:13;;;;;;;1.80;1.00;;;9.40;99.90;;;;;;5012055;28;20044;-80
2022/01/09 01:13:39;;;;;;;1.65;0.90;;;9.30;99.90;;;;;;5013364;28;20393;-78
2022/01/09 01:16:04;;;;;;;0.20;0.20;;;9.30;99.90;;;;;;5013092;28;20030;-78
2022/01/09 01:18:30;;;;;;;0.40;0.40;;;9.30;99.90;;;;;;5013002;28;20018;-78
2022/01/09 01:20:56;;;;;;;0.03;0.03;;;9.40;99.90;;;;;;5012728;28;20401;-79
2022/01/09 01:23:21;;;;;;;61.83;1.80;;;9.40;99.90;;;;;;5012877;28;20507;-79
2022/01/09 01:25:51;;;;;;;0.00;0.00;;;9.10;99.90;;;;;;5012763;28;20026;-78
2022/01/09 01:28:17;;;;;;;0.30;0.30;;;8.90;99.90;;;;;;5013348;28;20034;-78
2022/01/09 01:30:43;;;;;;;0.85;0.85;;;8.80;99.90;;;;;;5012715;28;20038;-78
2022/01/09 01:33:09;;;;;;;1.23;1.13;;;8.70;99.90;;;;;;5012828;28;20076;-80
2022/01/09 01:35:35;;;;;;;11.90;3.40;;;8.70;99.90;;;;;;5012105;28;20492;-79
2022/01/09 01:38:01;;;;;;;0.00;0.00;;;8.70;99.90;;;;;;5012865;28;20026;-78
2022/01/09 01:40:26;;;;;;;0.28;0.28;;;8.70;99.90;;;;;;5012915;28;20481;-78
2022/01/09 01:42:52;;;;;;;0.90;0.85;;;8.70;99.90;;;;;;5011486;28;20397;-78
2022/01/09 01:45:18;;;;;;;0.00;0.00;;;8.80;99.90;;;;;;5012643;28;20034;-80
2022/01/09 01:47:44;;;;;;;0.47;0.47;;;8.90;99.90;;;;;;5012638;28;20060;-78
2022/01/09 01:50:12;;;;;;;2.45;0.55;;;8.90;99.90;;;;;;5012363;28;20018;-78
2022/01/09 01:52:42;;;;;;;0.00;0.00;;;9.00;99.90;;;;;;5012417;28;20504;-79
2022/01/09 01:55:11;;;;;;;3.65;1.25;;;8.90;99.90;;;;;;5013004;28;20030;-80
2022/01/09 01:57:40;;;;;;;0.00;0.00;;;9.00;99.90;;;;;;5012809;28;20040;-79
2022/01/09 02:00:08;;;;;;;0.28;0.28;;;8.90;99.90;;;;;;5015527;28;20477;-80
2022/01/09 02:02:34;;;;;;;0.08;0.05;;;8.90;99.90;;;;;;5016567;28;20452;-80
2022/01/09 02:05:00;;;;;;;10.77;3.42;;;9.00;99.90;;;;;;5016453;28;20081;-80
2022/01/09 02:07:27;;;;;;;0.45;0.45;;;9.00;99.90;;;;;;5016399;28;20496;-80
2022/01/09 02:09:53;;;;;;;0.00;0.00;;;8.90;99.90;;;;;;5016130;28;20029;-81
2022/01/09 02:12:19;;;;;;;1.48;1.10;;;8.90;99.90;;;;;;5016429;28;20386;-80
2022/01/09 02:14:47;;;;;;;0.55;0.55;;;8.90;99.90;;;;;;5015162;28;20037;-80
2022/01/09 02:17:20;;;;;;;0.30;0.30;;;8.80;99.90;;;;;;5016254;28;20029;-80
2022/01/09 02:19:56;;;;;;;0.50;0.50;;;8.70;99.90;;;;;;5015693;28;20060;-80
2022/01/09 02:22:24;;;;;;;2.85;1.35;;;8.60;99.90;;;;;;5016064;28;20053;-80
2022/01/09 02:24:50;;;;;;;18.20;1.27;;;8.60;99.90;;;;;;5012189;28;20026;-80
2022/01/09 02:27:16;;;;;;;0.10;0.10;;;8.60;99.90;;;;;;5010334;28;20026;-80
2022/01/09 02:29:46;;;;;;;0.00;0.00;;;8.60;99.90;;;;;;5015881;28;20054;-81
2022/01/09 02:32:12;;;;;;;0.03;0.03;;;8.70;99.90;;;;;;5013031;28;20038;-80
2022/01/09 02:34:38;;;;;;;0.95;0.88;;;8.80;99.90;;;;;;5015966;28;20033;-80
2022/01/09 02:37:04;;;;;;;0.50;0.50;;;8.90;99.90;;;;;;5015823;28;20504;-80
2022/01/09 02:39:31;;;;;;;6.85;2.33;;;8.90;99.90;;;;;;5015826;28;20088;-81
2022/01/09 02:41:56;;;;;;;1.08;0.45;;;8.90;99.90;;;;;;5015679;28;20034;-81
2022/01/09 02:44:22;;;;;;;0.30;0.30;;;9.00;99.90;;;;;;5014295;28;20034;-80
2022/01/09 02:49:13;;;;;;;10.50;2.30;;;9.00;99.90;;;;;;5015461;28;20022;-80
2022/01/09 02:51:40;;;;;;;1.08;0.93;;;9.10;99.90;;;;;;5015101;28;20428;-81
2022/01/09 02:56:49;;;;;;;0.05;0.05;;;9.30;99.90;;;;;;5015888;28;20028;-80
2022/01/09 02:59:15;;;;;;;4.15;1.65;;;9.30;99.90;;;;;;5015592;28;20105;-79
2022/01/09 03:01:41;;;;;;;0.52;0.52;;;9.20;99.90;;;;;;5015474;28;20540;-79
2022/01/09 03:04:06;;;;;;;1.05;0.98;;;9.10;99.90;;;;;;5015334;28;20034;-78
2022/01/09 03:06:32;;;;;;;0.10;0.10;;;8.90;99.90;;;;;;5015149;28;20026;-78
2022/01/09 03:09:01;;;;;;;0.00;0.00;;;8.80;99.90;;;;;;5015290;28;20112;-79
2022/01/09 03:11:26;;;;;;;0.95;0.85;;;8.90;99.90;;;;;;5014493;28;20018;-78
2022/01/09 03:13:52;;;;;;;2.90;1.23;;;8.90;99.90;;;;;;5015239;28;20500;-81
2022/01/09 03:16:18;;;;;;;0.00;0.00;;;9.00;99.90;;;;;;5015108;28;20034;-79
2022/01/09 03:18:43;;;;;;;4.57;2.28;;;8.90;99.90;;;;;;5015087;28;20034;-81
2022/01/09 03:21:09;;;;;;;0.73;0.35;;;8.80;99.90;;;;;;5014660;28;20026;-80
2022/01/09 03:23:35;;;;;;;16.27;1.65;;;8.90;99.90;;;;;;5014876;28;20113;-80
2022/01/09 03:26:02;;;;;;;1.02;0.80;;;8.90;99.90;;;;;;5004986;28;20043;-80
2022/01/09 03:28:28;;;;;;;0.25;0.25;;;8.90;99.90;;;;;;5015417;28;20028;-80
2022/01/09 03:30:54;;;;;;;3.88;1.75;;;8.90;99.90;;;;;;5014766;28;20041;-79
2022/01/09 03:33:20;;;;;;;1.20;0.63;;;8.90;99.90;;;;;;5014612;28;20511;-79
2022/01/09 03:35:45;;;;;;;0.00;0.00;;;8.80;99.90;;;;;;5014550;28;20049;-80
2022/01/09 03:38:12;;;;;;;1.13;0.63;;;8.80;99.90;;;;;;5013613;28;20057;-80
2022/01/09 03:40:38;;;;;;;4.38;1.45;;;8.90;99.90;;;;;;5014957;28;20026;-81
2022/01/09 03:43:04;;;;;;;0.20;0.20;;;8.90;99.90;;;;;;5014573;28;20022;-81
2022/01/09 03:45:30;;;;;;;0.47;0.32;;;8.90;99.90;;;;;;5013231;28;20092;-81
2022/01/09 03:47:57;;;;;;;0.30;0.30;;;9.00;99.90;;;;;;5014386;28;20029;-81
2022/01/09 03:50:23;;;;;;;0.85;0.57;;;8.90;99.90;;;;;;5014279;28;20037;-81
2022/01/09 03:52:49;;;;;;;0.00;0.00;;;8.90;99.90;;;;;;5014099;28;20054;-81
2022/01/09 03:55:19;;;;;;;0.00;0.00;;;8.90;99.90;;;;;;5014543;28;20029;-79
2022/01/09 03:57:45;;;;;;;0.15;0.15;;;8.80;99.90;;;;;;5014139;28;20029;-79
2022/01/09 04:00:14;;;;;;;3.03;1.77;;;8.90;99.90;;;;;;5014526;28;20033;-81
2022/01/09 04:02:42;;;;;;;0.73;0.30;;;8.90;99.90;;;;;;5014305;28;20030;-81
2022/01/09 04:05:08;;;;;;;0.43;0.38;;;9.00;99.90;;;;;;5014233;28;20036;-81
2022/01/09 04:07:35;;;;;;;6.43;2.85;;;9.10;99.90;;;;;;5012726;28;20397;-81
2022/01/09 04:10:01;;;;;;;2.17;1.55;;;9.20;99.90;;;;;;5014207;28;20421;-78
2022/01/09 04:12:46;;;;;;;1.45;1.13;;;9.20;99.90;;;;;;5012742;28;20026;-81
2022/01/09 04:15:13;;;;;;;0.65;0.52;;;9.20;99.90;;;;;;5014170;28;20030;-81
2022/01/09 04:17:50;;;;;;;0.05;0.05;;;9.20;99.90;;;;;;5013747;28;20352;-81
2022/01/09 04:20:15;;;;;;;2.10;0.82;;;9.20;99.90;;;;;;5012678;28;20030;-82
2022/01/09 04:22:41;;;;;;;0.30;0.30;;;9.20;99.90;;;;;;5011293;28;20619;-78
2022/01/09 04:25:07;;;;;;;0.40;0.40;;;9.30;99.90;;;;;;5007793;28;20030;-78
2022/01/09 04:27:33;;;;;;;0.32;0.32;;;9.30;99.90;;;;;;5008950;28;20109;-82
2022/01/09 04:29:59;;;;;;;1.45;1.00;;;9.40;99.90;;;;;;5013632;28;20085;-81
2022/01/09 04:32:25;;;;;;;0.00;0.00;;;9.50;99.90;;;;;;5013814;28;20018;-82
2022/01/09 04:34:51;;;;;;;0.10;0.10;;;9.50;99.90;;;;;;5013782;28;20033;-79
2022/01/09 04:37:16;;;;;;;0.00;0.00;;;9.60;99.90;;;;;;5013722;28;20436;-82
2022/01/09 04:39:43;;;;;;;1.33;1.23;;;9.70;99.90;;;;;;5013693;28;20030;-78
2022/01/09 04:42:09;;;;;;;3.63;1.35;;;9.70;99.90;;;;;;5013896;28;20481;-81
2022/01/09 04:44:35;;;;;;;5.72;2.85;;;9.80;99.90;;;;;;5012378;28;20509;-81
2022/01/09 04:47:07;;;;;;;0.00;0.00;;;9.90;99.90;;;;;;5013843;28;20022;-78
2022/01/09 04:49:38;;;;;;;0.57;0.45;;;9.90;99.90;;;;;;5013167;28;20512;-78
2022/01/09 04:52:06;;;;;;;0.50;0.50;;;9.80;99.90;;;;;;5012917;28;20106;-81
2022/01/09 04:54:32;;;;;;;0.20;0.20;;;9.70;99.90;;;;;;5013473;28;20025;-81
2022/01/09 04:57:00;;;;;;;13.18;2.20;;;9.60;99.90;;;;;;5012581;28;20444;-80
2022/01/09 04:59:26;;;;;;;2.83;1.60;;;9.60;99.90;;;;;;5013355;28;20109;-78
2022/01/09 05:01:52;;;;;;;1.00;0.85;;;9.70;99.90;;;;;;5013552;28;20105;-77
2022/01/09 05:04:17;;;;;;;25.25;2.20;;;9.70;99.90;;;;;;5013170;28;20057;-77
2022/01/09 05:06:43;;;;;;;0.50;0.38;;;9.70;99.90;;;;;;5013074;28;20424;-78
2022/01/09 05:09:10;;;;;;;4.22;1.95;;;9.80;99.90;;;;;;5011878;28;20033;-82
2022/01/09 05:11:36;;;;;;;2.80;1.63;;;9.80;99.90;;;;;;5013383;28;20026;-76
2022/01/09 05:14:02;;;;;;;3.92;1.35;;;9.80;99.90;;;;;;5013081;28;20552;-78
2022/01/09 05:16:28;;;;;;;4.90;1.75;;;9.80;99.90;;;;;;5013189;28;20029;-80
2022/01/09 05:19:01;;;;;;;1.17;1.08;;;9.90;99.90;;;;;;5012851;28;20030;-81
2022/01/09 05:21:27;;;;;;;;;;;9.90;99.90;;;;;;5013072;28;20097;-81
2022/01/09 05:23:52;;;;;;;0.15;0.15;;;9.90;99.90;;;;;;5012833;28;20007;-81
2022/01/09 05:26:18;;;;;;;1.95;1.65;;;9.90;99.90;;;;;;5011467;28;20037;-78
2022/01/09 05:28:44;;;;;;;0.80;0.63;;;10.00;99.90;;;;;;5013626;28;20033;-81
2022/01/09 05:31:10;;;;;;;6.20;1.55;;;10.00;99.90;;;;;;5012793;28;20050;-78
2022/01/09 05:33:35;;;;;;;0.38;0.38;;;9.90;99.90;;;;;;5011365;28;20018;-81
2022/01/09 05:36:01;;;;;;;1.75;1.65;;;9.90;99.90;;;;;;5012757;28;20042;-80
2022/01/09 05:38:27;;;;;;;2.92;1.08;;;9.80;99.90;;;;;;5013943;28;20014;-81
2022/01/09 05:40:53;;;;;;;0.00;0.00;;;9.80;99.90;;;;;;5013017;28;20060;-79
2022/01/09 05:43:19;;;;;;;3.35;2.35;;;9.60;99.90;;;;;;5011516;28;20046;-78
2022/01/09 05:45:44;;;;;;;2.47;0.85;;;9.30;99.90;;;;;;5011292;28;20393;-78
2022/01/09 05:48:10;;;;;;;0.22;0.22;;;9.10;99.90;;;;;;5012620;28;20022;-79
2022/01/09 05:50:36;;;;;;;2.85;1.00;;;8.90;99.90;;;;;;5012125;28;20109;-77
2022/01/09 05:53:01;;;;;;;0.60;0.60;;;8.80;99.90;;;;;;5011143;28;20064;-79
2022/01/09 05:55:27;;;;;;;1.27;1.13;;;8.60;99.90;;;;;;5013041;28;20073;-85
2022/01/09 05:57:53;;;;;;;0.45;0.45;;;8.40;99.90;;;;;;5012328;28;20026;-83
2022/01/09 06:00:19;;;;;;;0.70;0.70;;;8.30;99.90;;;;;;5013004;28;20034;-79
2022/01/09 06:02:44;;;;;;;0.47;0.43;;;8.20;99.90;;;;;;5012127;28;20033;-86
2022/01/09 06:05:10;;;;;;;4.57;2.05;;;8.20;99.90;;;;;;5014683;28;20026;-79
2022/01/09 06:07:40;;;;;;;0.10;0.10;;;8.10;99.90;;;;;;5012442;28;20393;-79
2022/01/09 06:10:08;;;;;;;0.38;0.38;;;8.20;99.90;;;;;;5014249;28;20025;-79
2022/01/09 06:12:33;;;;;;;0.10;0.10;;;8.20;99.90;;;;;;5016118;28;20433;-85
2022/01/09 06:14:59;;;;;;;0.82;0.75;;;8.20;99.90;;;;;;5020272;28;20029;-84
2022/01/09 06:17:25;;;;;;;0.00;0.00;;;8.20;99.90;;;;;;5016783;28;20034;-83
2022/01/09 06:19:51;;;;;;;0.55;0.55;;;8.20;99.90;;;;;;5016151;28;20030;-80
2022/01/09 06:22:18;;;;;;;1.17;0.98;;;8.30;99.90;;;;;;5013315;28;20430;-82
2022/01/09 06:24:50;;;;;;;0.10;0.10;;;8.40;99.90;;;;;;5018276;28;20397;-82
2022/01/09 06:27:17;;;;;;;1.45;0.75;;;8.40;99.90;;;;;;5015938;28;20022;-82
2022/01/09 06:29:42;;;;;;;0.40;0.40;;;8.40;99.90;;;;;;5013047;28;20061;-81
2022/01/09 06:32:08;;;;;;;1.10;1.00;;;8.50;99.90;;;;;;5011385;28;20030;-79
2022/01/09 06:34:34;;;;;;;0.10;0.10;;;8.60;99.90;;;;;;5012237;28;20033;-79
2022/01/09 06:36:59;;;;;;;0.40;0.40;;;8.60;99.90;;;;;;4995730;28;20418;-80
2022/01/09 06:39:25;;;;;;;2.08;0.55;;;8.70;99.90;;;;;;4992826;28;20030;-79
2022/01/09 06:41:51;;;;;;;1.13;0.70;;;8.70;99.90;;;;;;5024304;28;20030;-79
2022/01/09 06:44:16;;;;;;;1.35;1.08;;;8.80;99.90;;;;;;4992622;28;20030;-79
2022/01/09 06:46:43;;;;;;;0.57;0.52;;;8.90;99.90;;;;;;5024651;28;20030;-78
2022/01/09 06:49:09;;;;;;;0.00;0.00;;;8.90;99.90;;;;;;5008398;28;20033;-81
2022/01/09 06:51:35;;;;;;;0.10;0.10;;;9.00;99.90;;;;;;5015117;28;20408;-81
2022/01/09 06:54:00;;;;;;;0.55;0.55;;;9.00;99.90;;;;;;5015560;28;20034;-81
2022/01/09 06:56:26;;;;;;;0.70;0.70;;;9.00;99.90;;;;;;5015632;28;20070;-80
2022/01/09 06:58:52;;;;;;;3.92;1.90;;;9.00;99.90;;;;;;5015532;28;20069;-81
2022/01/09 07:01:17;;;;;;;0.73;0.63;;;9.00;99.90;;;;;;5015610;28;20065;-80
2022/01/09 07:03:43;;;;;;;0.50;0.50;;;9.00;99.90;;;;;;5005075;28;20029;-79
2022/01/09 07:06:09;;;;;;;2.30;1.20;;;9.10;99.90;;;;;;4995877;28;20030;-82
2022/01/09 07:08:35;;;;;;;1.60;1.10;;;9.10;99.90;;;;;;4996104;28;20138;-79
2022/01/09 07:11:02;;;;;;;0.20;0.20;;;9.10;99.90;;;;;;4994968;28;20030;-78
2022/01/09 07:13:28;;;;;;;9.50;1.65;;;9.10;99.90;;;;;;4995164;28;20023;-77
2022/01/09 07:15:54;;;;;;;9.88;1.35;;;9.20;99.90;;;;;;4995593;28;20037;-79
2022/01/09 07:18:19;;;;;;;2.00;1.02;;;9.10;99.90;;;;;;4995586;28;20029;-79
2022/01/09 07:20:45;;;;;;;0.03;0.03;;;9.20;99.90;;;;;;4995501;28;20030;-81
2022/01/09 07:23:11;;;;;;;0.00;0.00;;;9.20;99.90;;;;;;4995287;28;20169;-79
2022/01/09 07:25:36;;;;;;;0.00;0.00;;;9.30;99.90;;;;;;4995600;28;20041;-77
2022/01/09 07:28:02;;;;;;;4.30;1.55;;;9.30;99.90;;;;;;5015296;28;20108;-79
2022/01/09 07:30:29;;;;;;;1.55;0.98;;;9.30;99.90;;;;;;5013458;28;20053;-79
2022/01/09 07:32:55;;;;;;;0.00;0.00;;;9.30;99.90;;;;;;5015007;28;20037;-79
2022/01/09 07:35:22;;;;;;;2.08;0.82;;;9.30;99.90;;;;;;5014918;28;20040;-78
2022/01/09 07:37:47;;;;;;;2.13;1.02;;;9.40;99.90;;;;;;5014626;28;20030;-77
2022/01/09 07:40:13;;;;;;;0.00;0.00;;;9.40;99.90;;;;;;5014939;28;20030;-78
2022/01/09 07:42:39;;;;;;;0.65;0.65;;;9.40;99.90;;;;;;5014783;28;20485;-79
2022/01/09 07:45:07;;;;;;;6.93;0.57;;;9.40;99.90;;;;;;5014702;28;20026;-79
2022/01/09 07:47:36;;;;;;;0.55;0.50;;;9.40;99.90;;;;;;5013259;28;20487;-79
2022/01/09 07:50:06;;;;;;;0.05;0.05;;;9.50;99.90;;;;;;5014117;28;20088;-78
2022/01/09 07:52:36;;;;;;;0.10;0.10;;;9.50;99.90;;;;;;5013998;28;20017;-77
2022/01/09 07:55:03;;;;;;;0.00;0.00;;;9.50;99.90;;;;;;5014695;28;20034;-80
2022/01/09 07:57:29;;;;;;;1.45;0.55;;;9.50;99.90;;;;;;5014262;28;20018;-80
2022/01/09 07:59:56;;;;;;;0.65;0.65;;;9.60;99.90;;;;;;5014549;28;20469;-79
2022/01/09 08:02:22;;;;;;;2.42;0.95;;;9.60;99.90;;;;;;5014112;28;20109;-77
2022/01/09 08:04:48;;;;;;;0.55;0.55;;;9.50;99.90;;;;;;4995310;28;20089;-77
2022/01/09 08:07:14;;;;;;;4.63;1.75;;;9.60;99.90;;;;;;5026196;28;20026;-79
2022/01/09 08:09:41;;;;;;;0.75;0.75;;;9.60;99.90;;;;;;5026157;28;20026;-80
2022/01/09 08:12:10;;;;;;;18.52;1.65;;;9.60;99.90;;;;;;4993658;28;20027;-80
2022/01/09 08:14:36;;;;;;;0.40;0.40;;;9.60;99.90;;;;;;4994619;28;20023;-80
2022/01/09 08:17:02;;;;;;;0.00;0.00;;;9.60;99.90;;;;;;4994513;28;20026;-77
2022/01/09 08:19:30;;;;;;;0.08;0.08;;;9.60;99.90;;;;;;4994419;28;20508;-79
2022/01/09 08:21:56;;;;;;;17.25;3.47;;;9.60;99.90;;;;;;4995184;28;20026;-79
2022/01/09 08:24:22;;;;;;;0.00;0.00;;;9.60;99.90;;;;;;4995965;28;20081;-77
2022/01/09 08:26:47;;;;;;;8.32;0.30;;;9.60;99.90;;;;;;5007551;28;20029;-79
2022/01/09 08:29:14;;;;;;;0.10;0.10;;;9.60;99.90;;;;;;5017219;28;20101;-77
2022/01/09 08:31:40;;;;;;;0.00;0.00;;;9.60;99.90;;;;;;5014422;28;20022;-76
2022/01/09 08:34:06;;;;;;;0.00;0.00;;;9.60;99.90;;;;;;5015929;28;20018;-79
2022/01/09 08:36:32;;;;;;;0.65;0.52;;;9.50;99.90;;;;;;5018189;28;20040;-80
2022/01/09 08:38:57;;;;;;;13.65;3.08;;;9.60;99.90;;;;;;5020848;28;20022;-80
2022/01/09 08:41:23;;;;;;;0.05;0.05;;;9.60;99.90;;;;;;5025061;28;20038;-76
2022/01/09 08:43:49;;;;;;;0.55;0.55;;;9.60;99.90;;;;;;5031443;28;20081;-77
2022/01/09 08:46:15;;;;;;;1.00;1.00;;;9.60;99.90;;;;;;5027377;28;20072;-79
2022/01/09 08:48:41;;;;;;;4.22;2.03;;;9.60;99.90;;;;;;5028718;28;20094;-79
2022/01/09 08:51:07;;;;;;;0.93;0.80;;;9.60;99.90;;;;;;5033362;28;20093;-77
2022/01/09 08:53:36;;;;;;;0.52;0.52;;;9.70;99.90;;;;;;5032890;28;20037;-77
2022/01/09 08:56:05;;;;;;;0.40;0.40;;;9.70;99.90;;;;;;5024690;28;20029;-77
2022/01/09 08:58:31;;;;;;;0.57;0.57;;;9.70;99.90;;;;;;5013563;28;20022;-79
2022/01/09 09:00:58;;;;;;;1.55;0.95;;;9.80;99.90;;;;;;5013532;28;20397;-79
2022/01/09 09:03:24;;;;;;;0.00;0.00;;;9.90;99.90;;;;;;5005724;28;20018;-79
2022/01/09 09:05:51;;;;;;;0.10;0.10;;;9.90;99.90;;;;;;4993416;28;20033;-79
2022/01/09 09:08:16;;;;;;;1.13;0.85;;;9.90;99.90;;;;;;4993135;28;20026;-77
2022/01/09 09:10:42;;;;;;;0.77;0.75;;;10.00;99.90;;;;;;4991963;28;20080;-79
2022/01/09 09:13:08;;;;;;;0.50;0.50;;;10.00;99.90;;;;;;4993665;28;20034;-79
2022/01/09 09:15:34;;;;;;;2.38;0.95;;;10.00;99.90;;;;;;4993629;28;20076;-79
2022/01/09 09:18:00;;;;;;;15.52;1.92;;;10.00;99.90;;;;;;4993274;28;20038;-79
2022/01/09 09:20:26;;;;;;;0.10;0.10;;;10.00;99.90;;;;;;4992729;28;20105;-76
2022/01/09 09:22:52;;;;;;;0.20;0.20;;;10.00;99.90;;;;;;4992852;28;20087;-76
2022/01/09 09:25:18;;;;;;;32.95;2.40;;;10.00;99.90;;;;;;4992288;28;20121;-78
2022/01/09 09:27:45;;;;;;;3.63;1.88;;;10.10;99.90;;;;;;5010884;28;20030;-79
2022/01/09 09:30:11;;;;;;;0.45;0.45;;;10.10;99.90;;;;;;5012929;28;20088;-77
2022/01/09 09:32:38;;;;;;;2.05;0.95;;;10.10;99.90;;;;;;5012881;28;20095;-79
2022/01/09 09:35:04;;;;;;;2.30;0.95;;;10.10;99.90;;;;;;5012891;28;20026;-76
2022/01/09 09:37:30;;;;;;;0.13;0.13;;;10.10;99.90;;;;;;5012653;28;20022;-79
2022/01/09 09:39:56;;;;;;;1.10;0.52;;;10.10;99.90;;;;;;5012699;28;20022;-79
2022/01/09 09:42:22;;;;;;;0.17;0.17;;;10.10;99.90;;;;;;5012920;28;20030;-76
2022/01/09 09:44:48;;;;;;;0.00;0.00;;;10.00;99.90;;;;;;5012805;28;20401;-79
2022/01/09 09:47:18;;;;;;;0.95;0.90;;;10.00;99.90;;;;;;5012753;28;20478;-77
2022/01/09 09:49:45;;;;;;;6.50;2.10;;;10.00;99.90;;;;;;5011172;28;20026;-76
2022/01/09 09:52:15;;;;;;;0.30;0.30;;;9.90;99.90;;;;;;5011085;28;20425;-79
2022/01/09 09:54:41;;;;;;;0.20;0.20;;;9.70;99.90;;;;;;5012477;28;20101;-77
2022/01/09 09:57:07;;;;;;;5.82;1.48;;;9.70;99.90;;;;;;5012771;28;20060;-77
2022/01/09 09:59:38;;;;;;;23.00;0.65;;;9.60;99.90;;;;;;5012613;28;20038;-77
2022/01/09 10:02:12;;;;;;;0.00;0.00;;;9.60;99.90;;;;;;5012631;28;20394;-77
2022/01/09 10:04:58;;;;;;;0.10;0.10;;;9.60;99.90;;;;;;4994888;28;20031;-77
2022/01/09 10:07:24;;;;;;;0.43;0.32;;;9.60;99.90;;;;;;4992682;28;20041;-79
2022/01/09 10:09:54;;;;;;;0.00;0.00;;;9.60;99.90;;;;;;4992807;28;20048;-79
2022/01/09 10:12:28;;;;;;;0.98;0.70;;;9.60;99.90;;;;;;5006494;28;20030;-76
2022/01/09 10:14:59;;;;;;;0.52;0.52;;;9.70;99.90;;;;;;4992989;28;20037;-78
2022/01/09 10:17:25;;;;;;;0.10;0.10;;;9.70;99.90;;;;;;4992777;28;20374;-79
2022/01/09 10:19:58;;;;;;;0.00;0.00;;;9.90;99.90;;;;;;4993392;28;20048;-77
2022/01/09 10:22:24;;;;;;;0.52;0.52;;;10.10;99.90;;;;;;4996242;28;20073;-79
2022/01/09 10:24:50;;;;;;;0.05;0.05;;;10.20;99.90;;;;;;4996531;28;20026;-79
2022/01/09 10:27:36;;;;;;;0.00;0.00;;;10.20;99.90;;;;;;5010113;28;20515;-77
2022/01/09 10:30:05;;;;;;;0.65;0.43;;;10.20;99.90;;;;;;5015922;28;20094;-76
2022/01/09 10:32:32;;;;;;;4.07;1.88;;;10.10;99.90;;;;;;5015930;28;20026;-79
2022/01/09 10:35:12;;;;;;;0.00;0.00;;;10.00;99.90;;;;;;5016176;28;20030;-80
2022/01/09 10:37:39;;;;;;;4.63;1.65;;;9.90;99.90;;;;;;5015592;28;20400;-80
2022/01/09 10:40:08;;;;;;;0.00;0.00;;;9.80;99.90;;;;;;5015917;28;20104;-78
2022/01/09 10:42:35;;;;;;;2.00;1.20;;;9.70;99.90;;;;;;5016216;28;20032;-80
2022/01/09 10:45:23;;;;;;;0.00;0.00;;;9.70;99.90;;;;;;5015991;28;20049;-78
2022/01/09 10:47:50;;;;;;;3.60;1.40;;;9.60;99.90;;;;;;5015654;28;20452;-79
2022/01/09 10:50:28;;;;;;;0.57;0.32;;;9.70;99.90;;;;;;5014061;28;20481;-79
2022/01/09 10:53:18;;;;;;;0.65;0.65;;;9.80;99.90;;;;;;5015254;28;20092;-77
2022/01/09 10:55:47;;;;;;;0.05;0.05;;;9.80;99.90;;;;;;5015734;28;20030;-77
2022/01/09 10:58:23;;;;;;;0.15;0.15;;;9.70;99.90;;;;;;5015732;28;20033;-77
2022/01/09 11:01:11;;;;;;;0.00;0.00;;;9.80;99.90;;;;;;5015625;28;20084;-77
2022/01/09 11:03:38;;;;;;;0.00;0.00;;;9.80;99.90;;;;;;5006153;28;20026;-77
2022/01/09 11:06:04;;;;;;;0.30;0.30;;;9.70;99.90;;;;;;4995628;28;20077;-77
2022/01/09 11:08:30;;;;;;;0.00;0.00;;;9.70;99.90;;;;;;4995771;28;20030;-78
2022/01/09 11:10:58;;;;;;;0.35;0.35;;;9.70;99.90;;;;;;4994348;28;20064;-78
2022/01/09 11:13:25;;;;;;;0.65;0.28;;;9.80;99.90;;;;;;4995847;28;20015;-77
2022/01/09 11:18:39;;;;;;;0.17;0.17;;;9.90;99.90;;;;;;4995821;28;20041;-77
2022/01/09 11:21:05;;;;;;;0.45;0.45;;;10.00;99.90;;;;;;4995312;28;20033;-77
2022/01/09 11:24:18;;;;;;;0.00;0.00;;;10.10;99.90;;;;;;4995234;28;20070;-77
2022/01/09 11:27:05;;;;;;;0.00;0.00;;;10.20;99.90;;;;;;5004507;28;20497;-79
2022/01/09 11:30:03;;;;;;;0.00;0.00;;;10.30;99.90;;;;;;5014918;28;20053;-79
2022/01/09 11:32:43;;;;;;;0.00;0.00;;;10.30;99.90;;;;;;5014356;28;20018;-76
2022/01/09 11:35:14;;;;;;;0.03;0.03;;;10.10;99.90;;;;;;5014940;28;20033;-78
2022/01/09 11:38:24;;;;;;;0.28;0.28;;;10.00;99.90;;;;;;5014378;28;20459;-78
2022/01/09 11:40:49;;;;;;;0.25;0.25;;;10.10;99.90;;;;;;5009585;28;20042;-78
2022/01/09 11:43:18;;;;;;;0.25;0.25;;;10.10;99.90;;;;;;5014827;28;20072;-76
2022/01/09 11:46:00;;;;;;;1.00;0.75;;;10.20;99.90;;;;;;5014666;28;20460;-76
2022/01/09 11:48:52;;;;;;;0.30;0.30;;;10.20;99.90;;;;;;5014585;28;20064;-78
2022/01/09 11:51:19;;;;;;;8.50;1.27;;;10.20;99.90;;;;;;5004870;28;20038;-78
2022/01/09 11:53:57;;;;;;;0.00;0.00;;;10.20;99.90;;;;;;5012531;28;20040;-76
2022/01/09 11:56:41;;;;;;;1.60;1.00;;;10.30;99.90;;;;;;5014478;28;20033;-76
2022/01/09 11:59:30;;;;;;;0.00;0.00;;;10.30;99.90;;;;;;5014616;28;20030;-76
2022/01/09 12:02:03;;;;;;;0.00;0.00;;;10.30;99.90;;;;;;5014550;28;20037;-79
2022/01/09 12:04:35;;;;;;;0.00;0.00;;;10.30;99.90;;;;;;5009120;28;20041;-79
2022/01/09 12:07:12;;;;;;;0.00;0.00;;;10.40;99.90;;;;;;4992991;28;20023;-79
2022/01/09 12:09:40;;;;;;;0.10;0.10;;;10.50;99.90;;;;;;4994471;28;20027;-79
2022/01/09 12:12:11;;;;;;;2.25;1.10;;;10.50;99.90;;;;;;4994550;28;20022;-76
2022/01/09 12:14:45;;;;;;;0.00;0.00;;;10.50;99.90;;;;;;4994585;28;20022;-79
2022/01/09 12:17:29;;;;;;;0.00;0.00;;;10.50;99.90;;;;;;4994600;28;20034;-77
2022/01/09 12:20:01;;;;;;;0.55;0.38;;;10.40;99.90;;;;;;4994409;28;20053;-79
2022/01/09 12:22:40;;;;;;;4.63;1.73;;;10.30;99.90;;;;;;4994309;28;20022;-77
2022/01/09 12:25:25;;;;;;;0.10;0.10;;;10.30;99.90;;;;;;4994403;28;20026;-76
2022/01/09 12:28:19;;;;;;;1.00;0.65;;;10.30;99.90;;;;;;5012706;28;20095;-79
2022/01/09 12:30:45;;;;;;;0.28;0.28;;;10.30;99.90;;;;;;5013908;28;20054;-80
2022/01/09 12:33:20;;;;;;;0.63;0.63;;;10.10;99.90;;;;;;5013788;28;20097;-79
2022/01/09 12:35:54;;;;;;;3.00;0.52;;;10.10;99.90;;;;;;5013628;28;20049;-77
2022/01/09 12:38:22;;;;;;;0.22;0.22;;;10.00;99.90;;;;;;5012582;28;20025;-77
2022/01/09 12:40:56;;;;;;;0.90;0.90;;;10.00;99.90;;;;;;5013798;28;20057;-79
2022/01/09 12:43:23;;;;;;;0.10;0.10;;;9.90;99.90;;;;;;5013042;28;20050;-79
2022/01/09 12:45:49;;;;;;;0.17;0.17;;;9.90;99.90;;;;;;5013508;28;20413;-79
2022/01/09 12:48:28;;;;;;;0.75;0.70;;;9.90;99.90;;;;;;5013433;28;20041;-79
2022/01/09 12:51:07;;;;;;;1.85;1.17;;;9.90;99.90;;;;;;5011729;28;20018;-79
2022/01/09 12:53:44;;;;;;;0.40;0.38;;;9.80;99.90;;;;;;5013380;28;20050;-78
2022/01/09 12:56:13;;;;;;;0.35;0.35;;;9.80;99.90;;;;;;5013557;28;20026;-78
2022/01/09 12:58:50;;;;;;;0.95;0.77;;;9.80;99.90;;;;;;5013563;28;20029;-80
2022/01/09 13:01:19;;;;;;;0.65;0.65;;;9.80;99.90;;;;;;5013260;28;20109;-77
2022/01/09 13:03:47;;;;;;;0.63;0.55;;;9.80;99.90;;;;;;5008471;28;20046;-77
2022/01/09 13:06:16;;;;;;;1.13;0.68;;;10.00;99.90;;;;;;4993480;28;20034;-79
2022/01/09 13:08:48;;;;;;;0.50;0.50;;;10.00;99.90;;;;;;4993757;28;20033;-79